Time;durP1;ratioP1;P1;durP2;ratioP2;P2;SDS_P1;SDS_P2;PMS_P1;PMS_P2;Temp;Humidity;BMP_temperature;BMP_pressure;BME280_temperature;BME280_humidity;BME280_pressure;Samples;Min_cycle;Max_cycle;Signal;HPM_P1;HPM_P2
2020/12/27 06:53:41;;;;;;;3.27;2.30;;;;;;;;;;4858631;29;20247;-79
2020/12/27 06:56:36;;;;;;;3.43;2.47;;;;;;;;;;4849105;29;20585;-79
2020/12/27 06:59:24;;;;;;;4.20;2.17;;;;;;;;;;4860731;29;20233;-79
2020/12/27 07:02:05;;;;;;;2.80;2.13;;;;;;;;;;4842709;29;20234;-79
2020/12/27 07:04:37;;;;;;;3.40;2.27;;;;;;;;;;4847195;29;20220;-80
2020/12/27 07:07:05;;;;;;;3.53;2.40;;;;;;;;;;4858486;29;20219;-80
2020/12/27 07:09:41;;;;;;;3.47;2.30;;;;;;;;;;4843411;29;20209;-80
2020/12/27 07:12:12;;;;;;;3.23;2.20;;;;;;;;;;4838569;29;20220;-80
2020/12/27 07:14:42;;;;;;;2.53;2.20;;;;;;;;;;4850112;29;20211;-79
2020/12/27 07:17:18;;;;;;;3.93;2.30;;;;;;;;;;4845257;29;20216;-79
2020/12/27 07:19:50;;;;;;;2.67;2.17;;;;;;;;;;4831199;29;20572;-81
2020/12/27 07:22:21;;;;;;;2.87;2.37;;;;;;;;;;4863267;29;20244;-78
2020/12/27 07:24:51;;;;;;;2.33;2.13;;;;;;;;;;4841778;29;20214;-79
2020/12/27 07:27:20;;;;;;;3.80;2.47;;;;;;;;;;4859977;29;20211;-79
2020/12/27 07:29:54;;;;;;;6.40;2.40;;;;;;;;;;4836468;29;20212;-79
2020/12/27 07:32:24;;;;;;;2.90;2.10;;;;;;;;;;4865283;29;20707;-79
2020/12/27 07:34:53;;;;;;;4.23;2.30;;;;;;;;;;4851909;29;20227;-78
2020/12/27 07:37:23;;;;;;;2.87;2.23;;;;;;;;;;4869929;29;20662;-80
2020/12/27 07:39:56;;;;;;;2.50;2.00;;;;;;;;;;4850460;29;20238;-81
2020/12/27 07:42:26;;;;;;;2.03;1.70;;;;;;;;;;4886008;29;20225;-80
2020/12/27 07:44:56;;;;;;;2.40;1.50;;;;;;;;;;4860671;29;20231;-78
2020/12/27 07:47:24;;;;;;;3.43;2.10;;;;;;;;;;4878165;29;20193;-79
2020/12/27 07:50:03;;;;;;;2.53;1.90;;;;;;;;;;4890812;29;20205;-79
2020/12/27 07:52:48;;;;;;;2.23;1.70;;;;;;;;;;4877864;29;20555;-78
2020/12/27 07:55:28;;;;;;;2.27;1.80;;;;;;;;;;4853885;29;20584;-78
2020/12/27 07:57:57;;;;;;;3.10;2.00;;;;;;;;;;4838377;29;20579;-79
2020/12/27 08:00:27;;;;;;;2.67;1.87;;;;;;;;;;4872472;29;20775;-79
2020/12/27 08:02:55;;;;;;;2.37;1.70;;;;;;;;;;4856572;29;20424;-79
2020/12/27 08:05:23;;;;;;;2.97;2.00;;;;;;;;;;4866194;29;20496;-79
2020/12/27 08:07:54;;;;;;;2.57;1.83;;;;;;;;;;4837639;29;20222;-79
2020/12/27 08:10:25;;;;;;;2.40;1.70;;;;;;;;;;4867096;29;20213;-79
2020/12/27 08:12:56;;;;;;;2.13;1.80;;;;;;;;;;4849798;29;20231;-79
2020/12/27 08:15:25;;;;;;;2.83;1.67;;;;;;;;;;4877490;29;20209;-79
2020/12/27 08:17:59;;;;;;;3.10;2.07;;;;;;;;;;4842102;29;20218;-79
2020/12/27 08:20:29;;;;;;;1.93;1.70;;;;;;;;;;4847762;29;20204;-79
2020/12/27 08:23:02;;;;;;;3.47;1.80;;;;;;;;;;4857614;29;20230;-79
2020/12/27 08:25:31;;;;;;;2.50;1.80;;;;;;;;;;4827852;29;20648;-79
2020/12/27 08:28:03;;;;;;;2.30;1.77;;;;;;;;;;4839957;29;20708;-79
2020/12/27 08:30:31;;;;;;;2.33;1.80;;;;;;;;;;4845105;29;20219;-79
2020/12/27 08:33:09;;;;;;;3.53;2.17;;;;;;;;;;4829818;29;20241;-79
2020/12/27 08:35:39;;;;;;;2.53;1.97;;;;;;;;;;4821635;29;20216;-79
2020/12/27 08:38:23;;;;;;;2.77;1.87;;;;;;;;;;4856891;29;20213;-80
2020/12/27 08:40:59;;;;;;;3.07;2.10;;;;;;;;;;4857324;29;20235;-79
2020/12/27 08:43:49;;;;;;;2.87;2.07;;;;;;;;;;4859915;29;20242;-79
2020/12/27 08:46:22;;;;;;;3.37;2.13;;;;;;;;;;4841813;29;20220;-79
2020/12/27 08:48:53;;;;;;;2.30;2.10;;;;;;;;;;4871864;29;20288;-79
2020/12/27 08:51:22;;;;;;;2.33;1.70;;;;;;;;;;4855467;29;20228;-79
2020/12/27 08:53:51;;;;;;;2.93;1.93;;;;;;;;;;4844043;29;20217;-79
2020/12/27 08:56:19;;;;;;;2.23;1.77;;;;;;;;;;4866060;29;20217;-80
2020/12/27 08:58:56;;;;;;;2.83;2.33;;;;;;;;;;4853816;29;20228;-80
2020/12/27 09:01:27;;;;;;;32.47;6.07;;;;;;;;;;4863225;29;20189;-80
2020/12/27 09:03:58;;;;;;;2.47;1.90;;;;;;;;;;4869771;29;20201;-79
2020/12/27 09:06:28;;;;;;;2.43;2.03;;;;;;;;;;4879417;29;20200;-81
2020/12/27 09:08:59;;;;;;;2.93;2.10;;;;;;;;;;4852593;29;20210;-80
2020/12/27 09:11:30;;;;;;;3.27;2.07;;;;;;;;;;4841002;29;20208;-79
2020/12/27 09:14:03;;;;;;;3.30;2.60;;;;;;;;;;4840225;29;20455;-79
2020/12/27 09:16:35;;;;;;;3.63;2.30;;;;;;;;;;4825920;29;20210;-79
2020/12/27 09:19:12;;;;;;;3.33;2.10;;;;;;;;;;4832470;29;20725;-80
2020/12/27 09:21:46;;;;;;;2.43;2.03;;;;;;;;;;4846284;29;20221;-79
2020/12/27 09:24:19;;;;;;;2.97;1.97;;;;;;;;;;4854838;29;20207;-79
2020/12/27 09:26:50;;;;;;;2.83;1.93;;;;;;;;;;4833796;29;20214;-79
2020/12/27 09:29:22;;;;;;;4.57;2.00;;;;;;;;;;4827736;29;20228;-79
2020/12/27 09:31:53;;;;;;;3.67;2.17;;;;;;;;;;4844699;29;20232;-79
2020/12/27 09:34:25;;;;;;;4.60;2.73;;;;;;;;;;4850436;29;20210;-80
2020/12/27 09:36:55;;;;;;;3.77;2.47;;;;;;;;;;4852394;29;20579;-80
2020/12/27 09:39:30;;;;;;;4.93;2.67;;;;;;;;;;4837367;29;20229;-80
2020/12/27 09:42:01;;;;;;;3.00;2.20;;;;;;;;;;4835502;29;20237;-80
2020/12/27 09:44:32;;;;;;;3.83;2.47;;;;;;;;;;4839209;29;20213;-80
2020/12/27 09:47:03;;;;;;;3.57;2.07;;;;;;;;;;4846040;29;20212;-80
2020/12/27 09:49:34;;;;;;;3.20;2.03;;;;;;;;;;4849298;29;20218;-80
2020/12/27 09:52:06;;;;;;;3.83;2.40;;;;;;;;;;4845375;29;20643;-80
2020/12/27 09:54:38;;;;;;;2.83;2.50;;;;;;;;;;4867578;29;20213;-80
2020/12/27 09:57:13;;;;;;;2.60;2.17;;;;;;;;;;4831809;29;20487;-80
2020/12/27 09:59:46;;;;;;;3.50;2.40;;;;;;;;;;4826073;29;20600;-80
2020/12/27 10:02:17;;;;;;;3.17;2.30;;;;;;;;;;4827572;29;20241;-80
2020/12/27 10:04:47;;;;;;;3.33;2.40;;;;;;;;;;4840953;29;20763;-80
2020/12/27 10:07:20;;;;;;;4.23;2.50;;;;;;;;;;4832179;29;20228;-80
2020/12/27 10:09:51;;;;;;;3.53;2.50;;;;;;;;;;4824973;29;20228;-80
2020/12/27 10:12:25;;;;;;;4.27;2.63;;;;;;;;;;4842345;29;20596;-80
2020/12/27 10:14:57;;;;;;;2.60;2.00;;;;;;;;;;4839321;29;20408;-80
2020/12/27 10:17:28;;;;;;;3.20;2.33;;;;;;;;;;4823411;29;20264;-81
2020/12/27 10:20:01;;;;;;;2.43;2.00;;;;;;;;;;4842043;29;20238;-80
2020/12/27 10:22:33;;;;;;;3.30;2.30;;;;;;;;;;4844113;29;20316;-80
2020/12/27 10:25:04;;;;;;;3.30;2.40;;;;;;;;;;4845952;29;20206;-81
2020/12/27 10:27:35;;;;;;;4.47;2.30;;;;;;;;;;4835291;29;20230;-80
2020/12/27 10:30:07;;;;;;;3.03;2.60;;;;;;;;;;4853360;29;20207;-81
2020/12/27 10:32:38;;;;;;;3.27;2.23;;;;;;;;;;4862824;29;20226;-81
2020/12/27 10:35:09;;;;;;;2.83;2.53;;;;;;;;;;4854853;29;20208;-80
2020/12/27 10:37:39;;;;;;;3.20;2.53;;;;;;;;;;4861026;29;20553;-81
2020/12/27 10:40:10;;;;;;;4.00;2.40;;;;;;;;;;4857731;29;20222;-80
2020/12/27 10:42:41;;;;;;;3.57;2.23;;;;;;;;;;4852661;29;20236;-81
2020/12/27 10:45:15;;;;;;;3.60;2.60;;;;;;;;;;4831103;29;20218;-80
2020/12/27 10:47:48;;;;;;;2.37;2.17;;;;;;;;;;4829660;29;20510;-81
2020/12/27 10:50:27;;;;;;;127.37;9.57;;;;;;;;;;4834328;29;20214;-81
2020/12/27 10:52:59;;;;;;;2.87;2.20;;;;;;;;;;4844906;29;20601;-81
2020/12/27 10:55:33;;;;;;;3.10;2.40;;;;;;;;;;4851594;29;20217;-81
2020/12/27 10:58:08;;;;;;;3.57;2.40;;;;;;;;;;4828337;29;20205;-81
2020/12/27 11:13:07;;;;;;;4.53;2.40;;;;;;;;;;4858013;29;20226;-81
2020/12/27 11:15:40;;;;;;;2.37;2.10;;;;;;;;;;4867217;29;20222;-79
2020/12/27 11:18:26;;;;;;;3.57;2.13;;;;;;;;;;4842801;29;20206;-81
2020/12/27 11:21:01;;;;;;;3.53;2.17;;;;;;;;;;4858985;29;20227;-82
2020/12/27 11:23:34;;;;;;;4.23;2.23;;;;;;;;;;4855319;29;20221;-83
2020/12/27 11:26:20;;;;;;;2.73;1.90;;;;;;;;;;4866276;29;20209;-82
2020/12/27 11:29:06;;;;;;;4.27;2.50;;;;;;;;;;4855178;29;20214;-79
2020/12/27 11:31:37;;;;;;;2.53;2.00;;;;;;;;;;4855950;29;20217;-80
2020/12/27 11:34:10;;;;;;;2.10;1.90;;;;;;;;;;4854170;29;20573;-80
2020/12/27 11:36:41;;;;;;;4.13;2.40;;;;;;;;;;4838967;29;20223;-80
2020/12/27 11:39:13;;;;;;;2.37;1.50;;;;;;;;;;4870625;29;20217;-82
2020/12/27 11:41:54;;;;;;;3.53;1.97;;;;;;;;;;4864666;29;20234;-83
2020/12/27 11:44:26;;;;;;;4.13;1.90;;;;;;;;;;4841114;29;20218;-82
2020/12/27 11:46:59;;;;;;;2.70;1.90;;;;;;;;;;4855235;29;20226;-81
2020/12/27 11:49:38;;;;;;;3.40;2.07;;;;;;;;;;4858461;29;20214;-82
2020/12/27 11:52:11;;;;;;;2.43;1.83;;;;;;;;;;4853762;29;20231;-80
2020/12/27 11:54:42;;;;;;;2.53;1.97;;;;;;;;;;4839677;29;20214;-81
2020/12/27 11:57:18;;;;;;;3.13;2.10;;;;;;;;;;4846981;29;20705;-80
2020/12/27 11:59:55;;;;;;;3.37;2.40;;;;;;;;;;4851378;29;20222;-81
2020/12/27 12:02:27;;;;;;;3.00;1.80;;;;;;;;;;4852391;29;20256;-80
2020/12/27 12:05:02;;;;;;;3.73;2.00;;;;;;;;;;4856925;29;20210;-81
2020/12/27 12:07:35;;;;;;;3.73;2.27;;;;;;;;;;4860001;29;20577;-80
2020/12/27 12:10:13;;;;;;;2.67;2.03;;;;;;;;;;4876272;29;20283;-81
2020/12/27 12:12:50;;;;;;;3.17;2.10;;;;;;;;;;4845214;29;20238;-80
2020/12/27 12:15:37;;;;;;;2.43;1.87;;;;;;;;;;4843222;29;20214;-80
2020/12/27 12:18:16;;;;;;;2.37;2.00;;;;;;;;;;4863821;29;20211;-81
2020/12/27 12:20:58;;;;;;;2.30;1.63;;;;;;;;;;4857735;29;20227;-80
2020/12/27 12:23:31;;;;;;;1.90;1.60;;;;;;;;;;4860191;29;20230;-80
2020/12/27 12:26:22;;;;;;;3.63;1.80;;;;;;;;;;4853475;29;20213;-81
2020/12/27 12:28:58;;;;;;;3.10;2.10;;;;;;;;;;4860748;29;20210;-80
2020/12/27 12:31:36;;;;;;;2.80;1.77;;;;;;;;;;4865250;29;20543;-81
2020/12/27 12:34:15;;;;;;;1.90;1.47;;;;;;;;;;4872480;29;20209;-81
2020/12/27 12:36:54;;;;;;;2.23;1.80;;;;;;;;;;4847712;29;20736;-81
2020/12/27 12:39:28;;;;;;;2.57;1.80;;;;;;;;;;4856225;29;20206;-80
2020/12/27 12:42:25;;;;;;;2.47;2.00;;;;;;;;;;4858169;29;20773;-80
2020/12/27 12:45:05;;;;;;;2.37;1.70;;;;;;;;;;4857391;29;20602;-80
2020/12/27 12:47:45;;;;;;;2.87;2.00;;;;;;;;;;4868616;29;20700;-80
2020/12/27 12:50:18;;;;;;;1.70;1.60;;;;;;;;;;4848659;29;20207;-80
2020/12/27 12:52:53;;;;;;;2.40;1.77;;;;;;;;;;4841710;29;20606;-80
2020/12/27 12:55:27;;;;;;;2.47;1.80;;;;;;;;;;4839634;29;20308;-81
2020/12/27 12:57:59;;;;;;;1.73;1.63;;;;;;;;;;4872022;29;20203;-81
2020/12/27 13:00:31;;;;;;;2.70;2.00;;;;;;;;;;4856470;29;20223;-81
2020/12/27 13:03:05;;;;;;;2.43;1.50;;;;;;;;;;4841886;29;20233;-83
2020/12/27 13:05:41;;;;;;;2.23;1.90;;;;;;;;;;4850930;29;20210;-81
2020/12/27 13:08:14;;;;;;;2.37;1.73;;;;;;;;;;4839660;29;20232;-81
2020/12/27 13:10:46;;;;;;;1.53;1.40;;;;;;;;;;4845885;29;20213;-81
2020/12/27 13:13:19;;;;;;;2.40;1.90;;;;;;;;;;4849279;29;20717;-81
2020/12/27 13:15:51;;;;;;;2.50;1.90;;;;;;;;;;4853665;29;20218;-82
2020/12/27 13:18:25;;;;;;;2.40;1.90;;;;;;;;;;4862433;29;20211;-81
2020/12/27 13:20:58;;;;;;;3.23;1.60;;;;;;;;;;4857455;29;20222;-81
2020/12/27 13:23:37;;;;;;;2.20;1.77;;;;;;;;;;4846872;29;20229;-81
2020/12/27 13:28:56;;;;;;;1.93;1.57;;;;;;;;;;4875337;29;20218;-81
2020/12/27 13:31:37;;;;;;;2.73;1.70;;;;;;;;;;4859411;29;20215;-81
2020/12/27 13:34:14;;;;;;;2.50;2.00;;;;;;;;;;4876756;29;20214;-81
2020/12/27 13:36:47;;;;;;;2.37;1.93;;;;;;;;;;4844747;29;20581;-81
2020/12/27 13:39:22;;;;;;;2.03;1.73;;;;;;;;;;4857731;29;20214;-81
2020/12/27 13:41:54;;;;;;;2.53;1.80;;;;;;;;;;4838339;29;20247;-81
2020/12/27 13:44:26;;;;;;;2.37;1.90;;;;;;;;;;4840623;29;20207;-81
2020/12/27 13:47:04;;;;;;;2.50;1.73;;;;;;;;;;4855695;29;20202;-81
2020/12/27 13:49:37;;;;;;;3.03;1.97;;;;;;;;;;4843685;29;20566;-81
2020/12/27 13:52:09;;;;;;;3.00;1.63;;;;;;;;;;4855345;29;20227;-80
2020/12/27 13:54:42;;;;;;;1.40;1.30;;;;;;;;;;4839415;29;20233;-81
2020/12/27 13:57:14;;;;;;;2.40;1.63;;;;;;;;;;4822252;29;20207;-80
2020/12/27 13:59:45;;;;;;;1.80;1.40;;;;;;;;;;4844377;29;20206;-80
2020/12/27 14:02:30;;;;;;;2.00;1.73;;;;;;;;;;4849041;29;20226;-80
2020/12/27 14:05:03;;;;;;;1.37;1.20;;;;;;;;;;4854070;29;20206;-81
2020/12/27 14:07:36;;;;;;;1.23;1.13;;;;;;;;;;4852342;29;20217;-81
2020/12/27 14:10:10;;;;;;;2.13;1.60;;;;;;;;;;4858653;29;20206;-80
2020/12/27 14:12:41;;;;;;;2.47;1.43;;;;;;;;;;4844682;29;20253;-81
2020/12/27 14:15:13;;;;;;;2.10;1.50;;;;;;;;;;4841138;29;20218;-81
2020/12/27 14:17:45;;;;;;;2.27;1.97;;;;;;;;;;4858972;29;20202;-81
2020/12/27 14:20:17;;;;;;;2.47;1.60;;;;;;;;;;4840578;29;20229;-80
2020/12/27 14:22:49;;;;;;;4.20;1.83;;;;;;;;;;4855836;29;20723;-81
2020/12/27 14:25:21;;;;;;;2.37;1.70;;;;;;;;;;4843605;29;20202;-81
2020/12/27 14:27:53;;;;;;;2.33;1.70;;;;;;;;;;4853547;29;20206;-81
2020/12/27 14:30:24;;;;;;;1.73;1.47;;;;;;;;;;4835941;29;20218;-81
2020/12/27 14:32:56;;;;;;;2.30;1.70;;;;;;;;;;4843458;29;20249;-81
2020/12/27 14:35:27;;;;;;;2.27;1.63;;;;;;;;;;4854412;29;20213;-81
2020/12/27 14:37:58;;;;;;;2.73;1.50;;;;;;;;;;4856672;29;20214;-81
2020/12/27 14:40:39;;;;;;;1.93;1.50;;;;;;;;;;4853102;29;20230;-81
2020/12/27 14:43:10;;;;;;;2.57;1.60;;;;;;;;;;4846120;29;20588;-81
2020/12/27 14:45:41;;;;;;;2.33;1.90;;;;;;;;;;4845369;29;20198;-82
2020/12/27 14:48:13;;;;;;;1.67;1.50;;;;;;;;;;4858568;29;20234;-81
2020/12/27 14:50:44;;;;;;;3.03;1.90;;;;;;;;;;4864018;29;20198;-81
2020/12/27 14:53:16;;;;;;;2.60;1.70;;;;;;;;;;4921938;24;20238;-81
2020/12/27 14:55:51;;;;;;;2.67;2.00;;;;;;;;;;4869108;29;20202;-82
2020/12/27 14:58:23;;;;;;;2.10;1.80;;;;;;;;;;4855048;29;20209;-81
2020/12/27 15:00:55;;;;;;;2.00;1.70;;;;;;;;;;4835823;29;20222;-81
2020/12/27 15:03:31;;;;;;;5.53;2.07;;;;;;;;;;4841739;29;20249;-81
2020/12/27 15:06:03;;;;;;;2.53;1.63;;;;;;;;;;4839414;29;20217;-81
2020/12/27 15:08:36;;;;;;;2.50;1.80;;;;;;;;;;4830246;29;20576;-82
2020/12/27 15:11:09;;;;;;;3.07;1.67;;;;;;;;;;4841240;29;20563;-81
2020/12/27 15:13:40;;;;;;;2.93;2.30;;;;;;;;;;4826734;29;20234;-80
2020/12/27 15:16:12;;;;;;;3.77;2.40;;;;;;;;;;4811460;29;20219;-80
2020/12/27 15:18:44;;;;;;;3.43;2.20;;;;;;;;;;4829335;29;20215;-80
2020/12/27 15:21:15;;;;;;;2.70;2.07;;;;;;;;;;4843955;29;20226;-83
2020/12/27 15:23:48;;;;;;;2.67;2.00;;;;;;;;;;4841769;29;20223;-80
2020/12/27 15:26:24;;;;;;;1.77;1.40;;;;;;;;;;4826198;29;20214;-80
2020/12/27 15:28:55;;;;;;;2.50;1.67;;;;;;;;;;4826474;29;20701;-80
2020/12/27 15:31:29;;;;;;;2.03;1.63;;;;;;;;;;4811303;29;20215;-82
2020/12/27 15:34:02;;;;;;;2.97;1.80;;;;;;;;;;4827578;29;20195;-80
2020/12/27 15:36:34;;;;;;;2.80;2.40;;;;;;;;;;4827503;29;20211;-81
2020/12/27 15:39:06;;;;;;;4.00;2.80;;;;;;;;;;4796604;29;20204;-81
2020/12/27 15:41:39;;;;;;;5.37;3.60;;;;;;;;;;4826508;29;20342;-80
2020/12/27 15:44:29;;;;;;;10.87;6.63;;;;;;;;;;4825186;29;20207;-80
2020/12/27 15:47:04;;;;;;;3.70;2.50;;;;;;;;;;4826735;29;20724;-80
2020/12/27 15:49:37;;;;;;;4.20;2.83;;;;;;;;;;4825571;29;20694;-81
2020/12/27 15:52:09;;;;;;;4.10;2.50;;;;;;;;;;4828470;29;20256;-80
2020/12/27 15:54:47;;;;;;;3.90;2.47;;;;;;;;;;4828707;29;20223;-80
2020/12/27 15:57:23;;;;;;;6.77;4.57;;;;;;;;;;4832475;29;20221;-81
2020/12/27 16:04:12;;;;;;;7.17;3.80;;;;;;;;;;5419558;23;20252;-80
2020/12/27 16:10:14;;;;;;;11.80;7.20;;;;;;;;;;4868877;29;20208;-80
2020/12/27 16:17:08;;;;;;;6.17;3.10;;;;;;;;;;4907412;29;20521;-80
2020/12/27 16:19:39;;;;;;;5.90;3.30;;;;;;;;;;4884298;29;20205;-80
2020/12/27 16:22:14;;;;;;;5.03;3.00;;;;;;;;;;4865033;29;20251;-80
2020/12/27 16:24:45;;;;;;;16.87;3.60;;;;;;;;;;4880067;29;20206;-79
2020/12/27 16:27:15;;;;;;;3.97;3.10;;;;;;;;;;4850020;29;20233;-79
2020/12/27 16:29:46;;;;;;;7.97;4.10;;;;;;;;;;4889239;29;20620;-79
2020/12/27 16:42:23;;;;;;;5.87;3.53;;;;;;;;;;5059394;23;20244;-79
2020/12/27 16:45:01;;;;;;;8.40;4.30;;;;;;;;;;4866497;29;20220;-79
2020/12/27 16:47:30;;;;;;;6.33;4.10;;;;;;;;;;4890279;29;20216;-79
2020/12/27 16:49:59;;;;;;;5.57;3.83;;;;;;;;;;4897116;29;20235;-79
2020/12/27 16:55:43;;;;;;;7.33;4.37;;;;;;;;;;4883366;29;20201;-79
2020/12/27 16:58:13;;;;;;;5.87;4.00;;;;;;;;;;4878117;29;20247;-79
2020/12/27 17:00:47;;;;;;;7.23;4.53;;;;;;;;;;4882393;29;20220;-78
2020/12/27 17:53:51;;;;;;;5.67;3.23;;;;;;;;;;5457356;23;20477;-79
2020/12/27 17:56:21;;;;;;;4.70;2.93;;;;;;;;;;4867030;29;20201;-79
2020/12/27 17:59:19;;;;;;;6.53;3.37;;;;;;;;;;4890773;29;20217;-79
2020/12/27 18:37:50;;;;;;;9.53;5.20;;;;;;;;;;4954543;23;20610;-79
2020/12/27 18:40:19;;;;;;;6.63;4.27;;;;;;;;;;4895454;29;20217;-79
2020/12/27 18:46:24;;;;;;;8.07;4.50;;;;;;;;;;5934695;23;20181;31
2020/12/27 18:49:16;;;;;;;6.60;4.03;;;;;;;;;;4806733;29;20212;-80
2020/12/27 18:51:49;;;;;;;7.70;4.17;;;;;;;;;;4812138;29;20230;-80
2020/12/27 18:54:22;;;;;;;6.07;4.03;;;;;;;;;;4815054;29;20218;-80
2020/12/27 18:56:58;;;;;;;6.03;4.30;;;;;;;;;;4812147;29;20231;-80
2020/12/27 18:59:30;;;;;;;6.47;4.90;;;;;;;;;;4812390;29;20218;-79
2020/12/27 19:02:02;;;;;;;8.93;5.63;;;;;;;;;;4799340;29;20242;-80
2020/12/27 19:04:37;;;;;;;7.10;4.97;;;;;;;;;;4811915;29;20222;-80
2020/12/27 19:07:08;;;;;;;8.40;4.90;;;;;;;;;;4821501;29;20600;-80
2020/12/27 19:09:40;;;;;;;6.30;4.70;;;;;;;;;;4823542;29;20211;-80
2020/12/27 19:18:31;;;;;;;8.93;4.53;;;;;;;;;;4894524;24;20245;-81
2020/12/27 19:21:03;;;;;;;17.23;10.73;;;;;;;;;;4868218;29;20195;-80
2020/12/27 19:23:37;;;;;;;9.47;5.23;;;;;;;;;;4859032;29;20232;-80
2020/12/27 19:26:10;;;;;;;7.70;5.20;;;;;;;;;;4851888;29;20236;-81
2020/12/27 19:28:40;;;;;;;16.93;5.77;;;;;;;;;;4851288;29;20213;-81
2020/12/27 19:31:23;;;;;;;7.00;4.77;;;;;;;;;;4849572;29;20205;-81
2020/12/27 19:33:57;;;;;;;7.57;4.50;;;;;;;;;;4853868;29;20683;-81
2020/12/27 19:36:35;;;;;;;8.87;5.03;;;;;;;;;;4860389;29;20218;-81
2020/12/27 19:46:41;;;;;;;6.33;4.40;;;;;;;;;;5372420;23;20237;-79
2020/12/27 19:49:15;;;;;;;5.83;4.67;;;;;;;;;;4875191;29;20216;-81
2020/12/27 19:55:48;;;;;;;6.87;3.90;;;;;;;;;;4881663;29;20233;-80
2020/12/27 20:05:57;;;;;;;8.35;4.85;;;;;;;;;;5973286;23;20208;31
2020/12/27 20:08:30;;;;;;;8.17;5.13;;;;;;;;;;4828814;29;20223;-79
2020/12/27 20:11:01;;;;;;;7.30;4.83;;;;;;;;;;4816965;29;20192;-80
2020/12/27 20:26:21;;;;;;;7.73;4.77;;;;;;;;;;5548418;23;20240;-81
2020/12/27 20:28:53;;;;;;;6.40;4.13;;;;;;;;;;4868883;29;20213;-81
2020/12/27 21:00:07;;;;;;;7.13;3.67;;;;;;;;;;5076420;23;20607;-80
2020/12/27 21:03:05;;;;;;;5.47;3.57;;;;;;;;;;4864114;29;20225;-80
2020/12/27 21:05:43;;;;;;;4.57;3.63;;;;;;;;;;4830859;29;20576;-80
2020/12/27 21:08:37;;;;;;;7.20;3.50;;;;;;;;;;4858338;29;20209;-80
2020/12/27 21:11:12;;;;;;;4.87;3.60;;;;;;;;;;4860827;29;20211;-82
2020/12/27 21:13:44;;;;;;;5.80;3.40;;;;;;;;;;4858018;29;20708;-80
2020/12/27 21:16:17;;;;;;;6.60;3.73;;;;;;;;;;4857684;29;20201;-80
2020/12/27 21:18:52;;;;;;;4.17;3.30;;;;;;;;;;4845376;29;20219;-80
2020/12/27 21:21:29;;;;;;;6.93;3.50;;;;;;;;;;4855230;29;20596;-80
2020/12/27 21:24:07;;;;;;;5.40;3.50;;;;;;;;;;4858334;29;20232;-81
2020/12/27 21:26:39;;;;;;;4.33;3.10;;;;;;;;;;4854659;29;20205;-80
2020/12/27 21:29:11;;;;;;;6.90;3.70;;;;;;;;;;4870577;29;20288;-80
2020/12/27 21:31:47;;;;;;;7.13;3.97;;;;;;;;;;4844891;29;20292;-80
2020/12/27 21:34:23;;;;;;;6.47;4.03;;;;;;;;;;4856756;29;20400;-81
2020/12/27 21:36:56;;;;;;;5.20;3.60;;;;;;;;;;4827290;29;20210;-80
2020/12/27 21:39:28;;;;;;;10.03;4.57;;;;;;;;;;4858396;29;20944;-81
2020/12/27 21:42:06;;;;;;;5.73;3.63;;;;;;;;;;4845303;29;20230;-81
2020/12/27 21:44:40;;;;;;;6.20;4.03;;;;;;;;;;4848567;29;20224;-80
2020/12/27 21:47:18;;;;;;;5.10;3.73;;;;;;;;;;4856172;29;20217;-81
2020/12/27 21:49:55;;;;;;;8.20;4.27;;;;;;;;;;4858226;29;20763;-80
2020/12/27 21:52:30;;;;;;;6.17;4.27;;;;;;;;;;4843762;29;20243;-80
2020/12/27 21:55:05;;;;;;;7.30;4.17;;;;;;;;;;4875130;29;20217;-80
2020/12/27 21:57:37;;;;;;;7.07;4.37;;;;;;;;;;4855073;29;20208;-81
2020/12/27 22:00:10;;;;;;;6.20;4.30;;;;;;;;;;4843415;29;20209;-80
2020/12/27 22:02:44;;;;;;;5.20;3.53;;;;;;;;;;4853967;29;20226;-80
2020/12/27 22:05:17;;;;;;;6.00;3.90;;;;;;;;;;4857337;29;20676;-80
2020/12/27 22:07:48;;;;;;;6.23;4.10;;;;;;;;;;4866130;29;20214;-80
2020/12/27 22:10:24;;;;;;;6.73;4.10;;;;;;;;;;4860092;29;20209;-80
2020/12/27 22:12:56;;;;;;;5.40;3.80;;;;;;;;;;4873871;29;20233;-80
2020/12/27 22:15:36;;;;;;;5.63;3.83;;;;;;;;;;4840681;29;20206;-81
2020/12/27 22:18:08;;;;;;;5.17;3.57;;;;;;;;;;4844057;29;20221;-80
2020/12/27 22:20:43;;;;;;;6.53;3.97;;;;;;;;;;4841338;29;20210;-80
2020/12/27 22:23:15;;;;;;;5.07;3.37;;;;;;;;;;4854521;29;20228;-80
2020/12/27 22:25:47;;;;;;;4.70;3.33;;;;;;;;;;4858442;29;20206;-80
2020/12/27 22:28:19;;;;;;;5.10;3.43;;;;;;;;;;4852757;29;20212;-80
2020/12/27 22:30:50;;;;;;;5.30;3.73;;;;;;;;;;4861155;29;20210;-80
2020/12/27 22:33:20;;;;;;;6.20;3.63;;;;;;;;;;4864250;29;20229;-80
2020/12/27 22:35:52;;;;;;;4.37;3.00;;;;;;;;;;4841375;29;20214;-81
2020/12/27 22:38:24;;;;;;;4.63;3.40;;;;;;;;;;4863219;29;20218;-81
2020/12/27 22:40:56;;;;;;;6.20;3.90;;;;;;;;;;4844097;29;20206;-80
2020/12/27 22:43:27;;;;;;;7.27;3.90;;;;;;;;;;4843610;29;20225;-80
2020/12/27 22:45:56;;;;;;;5.53;3.00;;;;;;;;;;4854828;29;20203;-80
2020/12/27 22:48:28;;;;;;;5.27;3.73;;;;;;;;;;4869022;29;20213;-80
2020/12/27 22:51:01;;;;;;;4.10;2.80;;;;;;;;;;4845465;29;20220;-80
2020/12/27 22:53:32;;;;;;;5.10;3.50;;;;;;;;;;4842262;29;20221;-81
2020/12/27 22:56:04;;;;;;;5.23;3.63;;;;;;;;;;4873751;29;20211;-80
2020/12/27 22:58:41;;;;;;;4.70;3.60;;;;;;;;;;4853512;29;20233;-80
2020/12/27 23:01:12;;;;;;;7.00;3.90;;;;;;;;;;4856131;29;20209;-80
2020/12/27 23:03:47;;;;;;;5.63;3.63;;;;;;;;;;4860472;29;20705;-81
2020/12/27 23:06:22;;;;;;;6.67;3.87;;;;;;;;;;4873480;29;20219;-80
2020/12/27 23:08:52;;;;;;;6.50;3.70;;;;;;;;;;4858183;29;20690;-81
2020/12/27 23:11:23;;;;;;;5.77;4.07;;;;;;;;;;4843413;29;20743;-81
2020/12/27 23:13:55;;;;;;;7.60;4.63;;;;;;;;;;4845431;29;20198;-81
2020/12/27 23:16:26;;;;;;;7.17;4.30;;;;;;;;;;4843976;29;20214;-81
2020/12/27 23:18:58;;;;;;;6.80;4.07;;;;;;;;;;4847471;29;20237;-80
2020/12/27 23:21:30;;;;;;;7.67;4.00;;;;;;;;;;4845327;29;20576;-81
2020/12/27 23:24:02;;;;;;;6.00;4.17;;;;;;;;;;4847478;29;20222;-81
2020/12/27 23:26:33;;;;;;;6.37;4.03;;;;;;;;;;4847800;29;20712;-81
2020/12/27 23:29:04;;;;;;;6.13;4.10;;;;;;;;;;4861886;29;20209;-81
2020/12/27 23:31:40;;;;;;;7.40;4.00;;;;;;;;;;4851488;29;20695;-81
2020/12/27 23:34:11;;;;;;;6.40;3.80;;;;;;;;;;4869089;29;20217;-81
2020/12/27 23:36:44;;;;;;;4.57;3.27;;;;;;;;;;4854676;29;20209;-80
2020/12/27 23:39:15;;;;;;;5.00;3.47;;;;;;;;;;4891665;29;20221;-81
2020/12/27 23:41:46;;;;;;;5.27;3.00;;;;;;;;;;4869363;29;20225;-81
2020/12/27 23:44:18;;;;;;;4.13;2.50;;;;;;;;;;4844034;29;20221;-80
2020/12/27 23:46:50;;;;;;;3.43;2.50;;;;;;;;;;4865412;29;20216;-81
2020/12/27 23:49:22;;;;;;;7.80;3.13;;;;;;;;;;4846570;29;20210;-80
2020/12/27 23:51:54;;;;;;;3.83;2.50;;;;;;;;;;4843980;29;20232;-81
2020/12/27 23:54:24;;;;;;;4.13;2.50;;;;;;;;;;4852062;29;20202;-80
2020/12/27 23:56:55;;;;;;;6.37;3.00;;;;;;;;;;4848822;29;20206;-81
2020/12/27 23:59:28;;;;;;;5.37;2.90;;;;;;;;;;4857938;29;20214;-81
